< < Back
Terminal Aerodrome Forecast


Current Version              Previous Versions:   1  2  3  4  5  6  7  8  9  

Terminal Aerodrome Forecast

977
FTUS42 KGSP 251121
TAFHKY
TAF
KHKY 251121Z 2512/2612 31003KT P6SM SKC
     FM251700 24003KT P6SM SKC
     FM260500 30004KT P6SM SKC=

Latest METAR

285
SAUS70 KWBC 251400 RRI
MTRHKY
METAR KHKY 251353Z AUTO VRB03KT 10SM CLR 11/06 A3006 RMK AO2 SLP167
T01060061


USA.gov is the U.S. government's official web portal to all federal, state and local government web resources and services.